createdAt,value
2018-12-18T00:01:06.689Z,6.03
2018-12-18T00:03:39.282Z,6.06
2018-12-18T00:06:04.271Z,6.08
2018-12-18T00:08:33.071Z,6.07
2018-12-18T00:11:04.152Z,6.06
2018-12-18T00:13:32.935Z,6.05
2018-12-18T00:16:01.732Z,6.04
2018-12-18T00:18:30.559Z,6.01
2018-12-18T00:20:59.340Z,5.97
2018-12-18T00:23:28.192Z,5.97
2018-12-18T00:25:56.979Z,5.97
2018-12-18T00:28:25.772Z,5.98
2018-12-18T00:30:54.598Z,5.97
2018-12-18T00:33:24.402Z,6.01
2018-12-18T00:35:54.401Z,6.03
2018-12-18T00:38:23.214Z,6.08
2018-12-18T00:40:52.038Z,6.10
2018-12-18T00:43:20.820Z,6.14
2018-12-18T00:45:49.620Z,6.17
2018-12-18T00:48:18.403Z,6.18
2018-12-18T00:50:47.207Z,6.21
2018-12-18T00:53:15.999Z,6.23
2018-12-18T00:55:44.778Z,6.25
2018-12-18T00:58:13.653Z,6.28
2018-12-18T01:00:42.448Z,6.29
2018-12-18T01:03:11.327Z,6.32
2018-12-18T01:05:40.099Z,6.33
2018-12-18T01:08:08.875Z,6.38
2018-12-18T01:10:37.657Z,6.40
2018-12-18T01:13:06.462Z,6.40
2018-12-18T01:15:35.247Z,6.42
2018-12-18T01:18:04.039Z,6.43
2018-12-18T01:20:32.832Z,6.45
2018-12-18T01:23:01.626Z,6.47
2018-12-18T01:25:30.428Z,6.50
2018-12-18T01:27:59.219Z,6.52
2018-12-18T01:30:27.995Z,6.54
2018-12-18T01:32:58.985Z,6.56
2018-12-18T01:35:27.816Z,6.58
2018-12-18T01:37:56.609Z,6.61
2018-12-18T01:40:25.395Z,6.64
2018-12-18T01:42:54.186Z,6.66
2018-12-18T01:45:23.026Z,6.67
2018-12-18T01:47:51.861Z,6.69
2018-12-18T01:50:20.642Z,6.70
2018-12-18T01:52:49.473Z,6.74
2018-12-18T01:55:18.267Z,6.74
2018-12-18T01:57:47.060Z,6.74
2018-12-18T02:00:15.855Z,6.76
2018-12-18T02:02:44.658Z,6.78
2018-12-18T02:05:13.503Z,6.78
2018-12-18T02:07:42.314Z,6.79
2018-12-18T02:10:11.131Z,6.80
2018-12-18T02:12:39.924Z,6.82
2018-12-18T02:15:08.703Z,6.83
2018-12-18T02:17:37.982Z,6.82
2018-12-18T02:20:07.999Z,6.84
2018-12-18T02:22:36.799Z,6.85
2018-12-18T02:25:07.420Z,6.87
2018-12-18T02:27:36.206Z,6.88
2018-12-18T02:30:05.921Z,6.90
2018-12-18T02:32:34.704Z,6.91
2018-12-18T02:35:03.552Z,6.92
2018-12-18T02:37:32.352Z,6.93
2018-12-18T02:40:01.141Z,6.94
2018-12-18T02:42:29.911Z,6.97
2018-12-18T02:44:58.685Z,6.97
2018-12-18T02:47:27.467Z,6.98
2018-12-18T02:49:56.255Z,7.00
2018-12-18T02:52:25.137Z,6.99
2018-12-18T02:54:53.916Z,7.01
2018-12-18T02:57:22.755Z,7.01
2018-12-18T02:59:51.539Z,7.01
2018-12-18T03:02:20.423Z,7.00
2018-12-18T03:04:49.738Z,6.99
2018-12-18T03:07:18.552Z,7.01
2018-12-18T03:09:47.336Z,7.04
2018-12-18T03:12:16.144Z,7.06
2018-12-18T03:14:44.984Z,7.06
2018-12-18T03:17:14.474Z,7.08
2018-12-18T03:19:43.888Z,7.11
2018-12-18T03:22:12.703Z,7.12
2018-12-18T03:24:41.490Z,7.15
2018-12-18T03:27:10.335Z,7.17
2018-12-18T03:29:39.119Z,7.18
2018-12-18T03:32:12.145Z,7.18
2018-12-18T03:34:40.939Z,7.18
2018-12-18T03:37:09.751Z,7.19
2018-12-18T03:39:38.562Z,7.18
2018-12-18T03:42:07.370Z,7.19
2018-12-18T03:44:36.267Z,7.17
2018-12-18T03:47:05.377Z,7.15
2018-12-18T03:49:34.219Z,7.14
2018-12-18T03:52:02.994Z,7.14
2018-12-18T03:54:31.779Z,7.11
2018-12-18T03:57:00.899Z,7.06
2018-12-18T03:59:29.619Z,7.05
2018-12-18T04:01:58.426Z,7.06
2018-12-18T04:04:27.227Z,7.06
2018-12-18T04:06:56.018Z,7.05
2018-12-18T04:09:24.802Z,7.06
2018-12-18T04:11:59.059Z,7.08
2018-12-18T04:14:27.868Z,7.09
2018-12-18T04:16:56.652Z,7.08
2018-12-18T04:19:25.471Z,7.07
2018-12-18T04:21:54.233Z,7.09
2018-12-18T04:24:23.096Z,7.10
2018-12-18T04:26:51.971Z,7.12
2018-12-18T04:29:20.775Z,7.10
2018-12-18T04:31:49.565Z,7.10
2018-12-18T04:34:18.375Z,7.11
2018-12-18T04:36:47.172Z,7.12
2018-12-18T04:39:15.972Z,7.13
2018-12-18T04:41:44.769Z,7.14
2018-12-18T04:44:13.559Z,7.15
2018-12-18T04:46:42.352Z,7.16
2018-12-18T04:49:11.161Z,7.16
2018-12-18T04:51:40.028Z,7.17
2018-12-18T04:54:08.922Z,7.16
2018-12-18T04:56:37.829Z,7.18
2018-12-18T04:59:06.661Z,7.20
2018-12-18T05:01:35.458Z,7.21
2018-12-18T05:04:04.252Z,7.22
2018-12-18T05:06:33.139Z,7.22
2018-12-18T05:09:01.932Z,7.24
2018-12-18T05:11:30.873Z,7.24
2018-12-18T05:13:59.695Z,7.25
2018-12-18T05:16:28.491Z,7.27
2018-12-18T05:18:57.276Z,7.27
2018-12-18T05:21:26.087Z,7.27
2018-12-18T05:23:54.870Z,7.28
2018-12-18T05:26:23.708Z,7.29
2018-12-18T05:28:52.490Z,7.30
2018-12-18T05:31:21.288Z,7.32
2018-12-18T05:33:50.101Z,7.32
2018-12-18T05:36:18.947Z,7.35
2018-12-18T05:38:47.759Z,7.37
2018-12-18T05:41:16.571Z,7.39
2018-12-18T05:43:45.427Z,7.41
2018-12-18T05:46:14.238Z,7.41
2018-12-18T05:48:43.014Z,7.43
2018-12-18T05:51:11.793Z,7.44
2018-12-18T05:53:40.576Z,7.41
2018-12-18T05:56:09.374Z,7.40
2018-12-18T05:58:38.251Z,7.40
2018-12-18T06:01:07.038Z,7.41
2018-12-18T06:03:35.937Z,7.42
2018-12-18T06:06:04.900Z,7.43
2018-12-18T06:08:33.519Z,7.43
2018-12-18T06:11:02.318Z,7.44
2018-12-18T06:13:31.099Z,7.45
2018-12-18T06:15:59.870Z,7.45
2018-12-18T06:18:28.668Z,7.45
2018-12-18T06:20:57.511Z,7.46
2018-12-18T06:23:26.316Z,7.47
2018-12-18T06:25:55.140Z,7.48
2018-12-18T06:28:23.982Z,7.47
2018-12-18T06:30:52.770Z,7.46
2018-12-18T06:33:21.617Z,7.47
2018-12-18T06:35:50.459Z,7.45
2018-12-18T06:38:19.262Z,7.45
2018-12-18T06:40:48.058Z,7.45
2018-12-18T06:43:16.899Z,7.41
2018-12-18T06:45:45.687Z,7.39
2018-12-18T06:48:14.475Z,7.37
2018-12-18T06:50:43.281Z,7.36
2018-12-18T06:53:12.084Z,7.36
2018-12-18T06:55:40.871Z,7.36
2018-12-18T06:58:09.671Z,7.38
2018-12-18T07:00:38.480Z,7.40
2018-12-18T07:03:07.285Z,7.40
2018-12-18T07:05:36.178Z,7.42
2018-12-18T07:08:04.983Z,7.42
2018-12-18T07:10:33.781Z,7.42
2018-12-18T07:13:02.556Z,7.43
2018-12-18T07:15:31.394Z,7.43
2018-12-18T07:18:00.196Z,7.39
2018-12-18T07:20:28.972Z,7.39
2018-12-18T07:22:57.798Z,7.40
2018-12-18T07:25:26.577Z,7.38
2018-12-18T07:27:55.363Z,7.37
2018-12-18T07:30:24.198Z,7.36
2018-12-18T07:32:52.992Z,7.37
2018-12-18T07:35:23.397Z,7.37
2018-12-18T07:37:50.726Z,7.38
2018-12-18T07:40:19.479Z,7.34
2018-12-18T07:42:48.280Z,7.32
2018-12-18T07:45:17.075Z,7.32
2018-12-18T07:47:45.878Z,7.31
2018-12-18T07:50:14.671Z,7.33
2018-12-18T07:52:43.452Z,7.35
2018-12-18T07:55:12.241Z,7.35
2018-12-18T07:57:41.036Z,7.37
2018-12-18T08:00:09.881Z,7.37
2018-12-18T08:02:38.654Z,7.36
2018-12-18T08:05:08.088Z,7.35
2018-12-18T08:07:36.846Z,7.38
2018-12-18T08:10:05.885Z,7.39
2018-12-18T08:12:34.680Z,7.39
2018-12-18T08:15:03.494Z,7.39
2018-12-18T08:17:32.310Z,7.35
2018-12-18T08:20:01.082Z,7.32
2018-12-18T08:22:29.976Z,7.31
2018-12-18T08:24:58.769Z,7.30
2018-12-18T08:27:27.564Z,7.30
2018-12-18T08:29:56.399Z,7.33
2018-12-18T08:32:25.204Z,7.33
2018-12-18T08:34:53.998Z,7.34
2018-12-18T08:37:22.855Z,7.35
2018-12-18T08:39:51.652Z,7.34
2018-12-18T08:42:21.579Z,7.37
2018-12-18T08:44:50.390Z,7.34
2018-12-18T08:47:19.191Z,7.35
2018-12-18T08:49:48.938Z,7.36
2018-12-18T08:52:17.728Z,7.37
2018-12-18T08:54:46.528Z,7.42
2018-12-18T08:57:15.307Z,7.46
2018-12-18T08:59:44.167Z,7.47
2018-12-18T09:02:12.940Z,7.48
2018-12-18T09:04:42.398Z,7.49
2018-12-18T09:07:11.196Z,7.50
2018-12-18T09:09:39.974Z,7.47
2018-12-18T09:12:12.951Z,7.43
2018-12-18T09:14:45.918Z,7.46
2018-12-18T09:17:18.871Z,7.52
2018-12-18T09:19:47.642Z,7.56
2018-12-18T09:22:16.466Z,7.60
2018-12-18T09:24:45.246Z,7.57
2018-12-18T09:27:14.059Z,7.63
2018-12-18T09:29:42.846Z,7.72
2018-12-18T09:32:11.663Z,7.74
2018-12-18T09:34:40.476Z,7.80
2018-12-18T09:37:09.312Z,7.76
2018-12-18T09:39:42.645Z,7.80
2018-12-18T09:42:17.070Z,7.82
2018-12-18T09:44:45.872Z,7.94
2018-12-18T09:47:14.689Z,7.96
2018-12-18T09:49:43.480Z,8.05
2018-12-18T09:52:12.285Z,8.20
2018-12-18T09:54:41.096Z,8.29
2018-12-18T09:57:15.302Z,8.29
2018-12-18T09:59:44.104Z,8.27
2018-12-18T10:02:12.984Z,8.28
2018-12-18T10:04:41.774Z,8.30
2018-12-18T10:07:10.553Z,8.29
2018-12-18T10:09:39.336Z,8.32
2018-12-18T10:12:08.174Z,8.31
2018-12-18T10:14:36.951Z,8.35
2018-12-18T10:17:05.738Z,8.38
2018-12-18T10:19:34.516Z,8.44
2018-12-18T10:22:03.320Z,8.39
2018-12-18T10:24:32.107Z,8.44
2018-12-18T10:27:00.891Z,8.49
2018-12-18T10:29:29.993Z,8.46
2018-12-18T10:31:58.547Z,8.45
2018-12-18T10:34:27.347Z,8.45
2018-12-18T10:36:56.132Z,8.46
2018-12-18T10:39:24.936Z,8.47
2018-12-18T10:41:53.728Z,8.46
2018-12-18T10:44:22.516Z,8.44
2018-12-18T10:46:51.303Z,8.48
2018-12-18T10:49:20.090Z,8.53
2018-12-18T10:51:48.918Z,8.56
2018-12-18T10:54:17.714Z,8.47
2018-12-18T10:56:48.604Z,8.49
2018-12-18T10:59:17.370Z,8.51
2018-12-18T11:01:48.540Z,8.54
2018-12-18T11:04:17.367Z,8.53
2018-12-18T11:06:46.144Z,8.54
2018-12-18T11:09:14.938Z,8.57
2018-12-18T11:11:43.710Z,8.64
2018-12-18T11:14:13.411Z,8.55
2018-12-18T11:16:42.209Z,8.49
2018-12-18T11:19:10.998Z,8.46
2018-12-18T11:21:39.814Z,8.48
2018-12-18T11:24:08.682Z,8.51
2018-12-18T11:26:37.478Z,8.46
2018-12-18T11:29:06.399Z,8.40
2018-12-18T11:31:35.198Z,8.47
2018-12-18T11:34:03.986Z,8.52
2018-12-18T11:36:32.825Z,8.58
2018-12-18T11:39:01.617Z,8.62
2018-12-18T11:41:30.486Z,8.70
2018-12-18T11:43:59.297Z,8.86
2018-12-18T11:46:28.167Z,9.03
2018-12-18T11:48:57.006Z,9.23
2018-12-18T11:51:25.798Z,9.34
2018-12-18T11:53:54.598Z,9.42
2018-12-18T11:56:23.458Z,9.50
2018-12-18T11:58:52.246Z,9.43
2018-12-18T12:01:21.089Z,9.51
2018-12-18T12:03:49.853Z,9.59
2018-12-18T12:06:23.004Z,9.65
2018-12-18T12:08:47.516Z,9.68
2018-12-18T12:11:16.306Z,9.69
2018-12-18T12:13:45.104Z,9.67
2018-12-18T12:16:13.895Z,9.72
2018-12-18T12:18:42.746Z,9.75
2018-12-18T12:21:11.548Z,9.76
2018-12-18T12:23:40.344Z,9.76
2018-12-18T12:26:14.600Z,9.79
2018-12-18T12:28:43.363Z,9.77
2018-12-18T12:31:13.861Z,9.76
2018-12-18T12:33:45.928Z,9.71
2018-12-18T12:36:14.738Z,9.74
2018-12-18T12:38:43.541Z,9.77
2018-12-18T12:41:12.370Z,9.76
2018-12-18T12:43:41.170Z,9.74
2018-12-18T12:46:09.964Z,9.78
2018-12-18T12:48:44.106Z,9.74
2018-12-18T12:51:12.880Z,9.67
2018-12-18T12:53:41.692Z,9.61
2018-12-18T12:56:10.564Z,9.49
2018-12-18T12:58:39.389Z,9.54
2018-12-18T13:01:08.198Z,9.56
2018-12-18T13:03:37.032Z,9.58
2018-12-18T13:06:06.898Z,9.60
2018-12-18T13:08:35.719Z,9.55
2018-12-18T13:11:04.588Z,9.49
2018-12-18T13:13:33.407Z,9.46
2018-12-18T13:16:02.191Z,9.34
2018-12-18T13:18:31.045Z,9.32
2018-12-18T13:20:59.812Z,9.26
2018-12-18T13:23:28.652Z,9.20
2018-12-18T13:25:57.429Z,9.15
2018-12-18T13:28:27.433Z,9.12
2018-12-18T13:30:56.993Z,9.03
2018-12-18T13:33:26.662Z,8.90
2018-12-18T13:35:55.498Z,8.86
2018-12-18T13:38:24.309Z,8.86
2018-12-18T13:40:53.094Z,8.83
2018-12-18T13:43:21.928Z,8.90
2018-12-18T13:45:50.715Z,8.93
2018-12-18T13:48:19.512Z,8.96
2018-12-18T13:50:48.867Z,8.93
2018-12-18T13:53:18.068Z,8.97
2018-12-18T13:55:46.897Z,8.88
2018-12-18T13:58:15.685Z,8.86
2018-12-18T14:00:44.594Z,8.74
2018-12-18T14:03:13.404Z,8.59
2018-12-18T14:05:42.185Z,8.51
2018-12-18T14:08:10.998Z,8.48
2018-12-18T14:10:40.933Z,8.46
2018-12-18T14:13:09.746Z,8.46
2018-12-18T14:15:38.510Z,8.43
2018-12-18T14:18:07.303Z,8.38
2018-12-18T14:20:36.184Z,8.29
2018-12-18T14:23:04.954Z,8.23
2018-12-18T14:25:33.759Z,8.17
2018-12-18T14:28:02.548Z,8.11
2018-12-18T14:30:31.392Z,8.03
2018-12-18T14:33:00.206Z,7.98
2018-12-18T14:35:28.991Z,7.95
2018-12-18T14:37:57.853Z,7.90
2018-12-18T14:40:26.673Z,7.79
2018-12-18T14:42:55.463Z,7.75
2018-12-18T14:45:24.256Z,7.65
2018-12-18T14:47:53.053Z,7.59
2018-12-18T14:50:21.918Z,7.55
2018-12-18T14:52:50.812Z,7.50
2018-12-18T14:55:20.583Z,7.46
2018-12-18T14:57:49.368Z,7.41
2018-12-18T15:00:18.180Z,7.37
2018-12-18T15:02:47.009Z,7.33
2018-12-18T15:05:15.786Z,7.30
2018-12-18T15:07:51.331Z,7.27
2018-12-18T15:10:20.140Z,7.21
2018-12-18T15:12:50.205Z,7.16
2018-12-18T15:15:19.250Z,7.13
2018-12-18T15:17:48.037Z,7.10
2018-12-18T15:20:16.849Z,7.05
2018-12-18T15:22:45.642Z,6.99
2018-12-18T15:25:14.436Z,6.94
2018-12-18T15:27:43.227Z,6.89
2018-12-18T15:30:12.051Z,6.86
2018-12-18T15:32:40.836Z,6.83
2018-12-18T15:35:09.617Z,6.80
2018-12-18T15:37:38.403Z,6.78
2018-12-18T15:40:07.210Z,6.75
2018-12-18T15:42:35.997Z,6.70
2018-12-18T15:45:04.847Z,6.68
2018-12-18T15:47:33.638Z,6.66
2018-12-18T15:50:02.532Z,6.65
2018-12-18T15:52:31.346Z,6.63
2018-12-18T15:55:00.086Z,6.61
2018-12-18T15:57:28.893Z,6.57
2018-12-18T15:59:57.680Z,6.53
2018-12-18T16:02:26.484Z,6.50
2018-12-18T16:04:55.269Z,6.48
2018-12-18T16:07:24.059Z,6.45
2018-12-18T16:09:52.843Z,6.41
2018-12-18T16:12:21.679Z,6.38
2018-12-18T16:14:50.503Z,6.36
2018-12-18T16:17:19.368Z,6.31
2018-12-18T16:19:48.286Z,6.25
2018-12-18T16:22:17.150Z,6.23
2018-12-18T16:24:46.064Z,6.20
2018-12-18T16:27:14.911Z,6.18
2018-12-18T16:29:43.679Z,6.14
2018-12-18T16:32:12.518Z,6.11
2018-12-18T16:34:41.309Z,6.11
2018-12-18T16:37:10.907Z,6.07
2018-12-18T16:39:39.719Z,6.02
2018-12-18T16:42:08.524Z,6.00
2018-12-18T16:44:37.311Z,5.97
2018-12-18T16:47:06.143Z,5.95
2018-12-18T16:49:34.958Z,5.95
2018-12-18T16:52:04.396Z,5.93
2018-12-18T16:54:33.208Z,5.93
2018-12-18T16:57:03.267Z,5.90
2018-12-18T16:59:32.094Z,5.88
2018-12-18T17:02:00.910Z,5.84
2018-12-18T17:04:34.193Z,5.82
2018-12-18T17:07:02.984Z,5.80
2018-12-18T17:09:31.789Z,5.76
2018-12-18T17:12:00.580Z,5.75
2018-12-18T17:14:30.032Z,5.73
2018-12-18T17:17:00.228Z,5.72
2018-12-18T17:19:29.898Z,5.70
2018-12-18T17:21:58.800Z,5.69
2018-12-18T17:24:27.631Z,5.66
2018-12-18T17:26:56.424Z,5.67
2018-12-18T17:29:25.225Z,5.65
2018-12-18T17:31:54.014Z,5.65
2018-12-18T17:34:22.839Z,5.63
2018-12-18T17:36:52.591Z,5.63
2018-12-18T17:39:21.399Z,5.61
2018-12-18T17:41:50.180Z,5.60
2018-12-18T17:44:18.979Z,5.61
2018-12-18T17:46:47.767Z,5.61
2018-12-18T17:49:16.559Z,5.59
2018-12-18T17:51:45.392Z,5.59
2018-12-18T17:54:14.167Z,5.60
2018-12-18T17:56:42.968Z,5.60
2018-12-18T17:59:11.767Z,5.59
2018-12-18T18:01:40.575Z,5.58
2018-12-18T18:04:09.345Z,5.56
2018-12-18T18:06:38.149Z,5.57
2018-12-18T18:09:08.839Z,5.56
2018-12-18T18:11:37.738Z,5.56
2018-12-18T18:14:06.507Z,5.58
2018-12-18T18:16:35.392Z,5.60
2018-12-18T18:19:04.187Z,5.57
2018-12-18T18:21:33.027Z,5.60
2018-12-18T18:24:01.824Z,5.60
2018-12-18T18:26:30.619Z,5.60
2018-12-18T18:28:59.468Z,5.60
2018-12-18T18:31:28.335Z,5.59
2018-12-18T18:33:57.146Z,5.60
2018-12-18T18:36:25.930Z,5.61
2018-12-18T18:38:54.712Z,5.62
2018-12-18T18:41:23.514Z,5.64
2018-12-18T18:43:52.414Z,5.64
2018-12-18T18:46:21.183Z,5.65
2018-12-18T18:48:49.960Z,5.66
2018-12-18T18:51:18.735Z,5.66
2018-12-18T18:53:47.540Z,5.66
2018-12-18T18:56:16.352Z,5.64
2018-12-18T18:58:45.141Z,5.62
2018-12-18T19:01:15.156Z,5.62
2018-12-18T19:03:43.998Z,5.60
2018-12-18T19:06:12.787Z,5.58
2018-12-18T19:08:41.582Z,5.56
2018-12-18T19:11:10.373Z,5.55
2018-12-18T19:13:40.529Z,5.55
2018-12-18T19:16:08.007Z,5.53
2018-12-18T19:18:36.953Z,5.54
2018-12-18T19:21:05.760Z,5.52
2018-12-18T19:23:34.543Z,5.54
2018-12-18T19:26:03.351Z,5.52
2018-12-18T19:28:32.212Z,5.56
2018-12-18T19:31:01.015Z,5.58
2018-12-18T19:33:29.945Z,5.60
2018-12-18T19:35:58.730Z,5.59
2018-12-18T19:38:27.591Z,5.61
2018-12-18T19:40:56.365Z,5.62
2018-12-18T19:43:25.264Z,5.64
2018-12-18T19:45:54.038Z,5.66
2018-12-18T19:48:22.928Z,5.62
2018-12-18T19:50:51.733Z,5.67
2018-12-18T19:53:20.551Z,5.67
2018-12-18T19:55:49.479Z,5.66
2018-12-18T19:58:18.288Z,5.66
2018-12-18T20:00:47.086Z,5.66
2018-12-18T20:03:15.878Z,5.66
2018-12-18T20:05:44.703Z,5.66
2018-12-18T20:08:13.533Z,5.65
2018-12-18T20:10:42.345Z,5.68
2018-12-18T20:13:11.143Z,5.69
2018-12-18T20:15:39.941Z,5.68
2018-12-18T20:18:08.734Z,5.70
2018-12-18T20:20:37.580Z,5.71
2018-12-18T20:23:06.372Z,5.71
2018-12-18T20:25:35.155Z,5.71
2018-12-18T20:28:03.947Z,5.72
2018-12-18T20:30:32.831Z,5.73
2018-12-18T20:33:01.616Z,5.72
2018-12-18T20:35:30.404Z,5.72
2018-12-18T20:37:59.275Z,5.72
2018-12-18T20:40:28.114Z,5.73
2018-12-18T20:42:56.903Z,5.73
2018-12-18T20:45:25.687Z,5.74
2018-12-18T20:47:54.587Z,5.74
2018-12-18T20:50:23.427Z,5.74
2018-12-18T20:52:52.226Z,5.70
2018-12-18T20:55:21.103Z,5.74
2018-12-18T20:57:49.859Z,5.76
2018-12-18T21:00:18.696Z,5.77
2018-12-18T21:02:47.482Z,5.78
2018-12-18T21:05:16.269Z,5.80
2018-12-18T21:07:45.059Z,5.81
2018-12-18T21:10:13.856Z,5.81
2018-12-18T21:12:42.758Z,5.83
2018-12-18T21:15:11.516Z,5.84
2018-12-18T21:17:40.293Z,5.84
2018-12-18T21:20:09.127Z,5.86
2018-12-18T21:22:37.979Z,5.87
2018-12-18T21:25:07.577Z,5.88
2018-12-18T21:27:36.364Z,5.90
2018-12-18T21:30:05.954Z,5.90
2018-12-18T21:32:34.738Z,5.89
2018-12-18T21:35:03.752Z,5.90
2018-12-18T21:37:32.562Z,5.92
2018-12-18T21:40:01.359Z,5.91
2018-12-18T21:42:30.146Z,5.92
2018-12-18T21:44:58.950Z,5.94
2018-12-18T21:47:27.728Z,5.95
2018-12-18T21:49:56.515Z,5.97
2018-12-18T21:52:25.306Z,5.96
2018-12-18T21:54:54.083Z,5.95
2018-12-18T21:57:22.915Z,5.96
2018-12-18T21:59:51.720Z,5.96
2018-12-18T22:02:20.666Z,5.98
2018-12-18T22:04:49.456Z,5.98
2018-12-18T22:07:18.241Z,5.97
2018-12-18T22:09:47.047Z,5.99
2018-12-18T22:12:15.848Z,5.97
2018-12-18T22:14:44.688Z,5.98
2018-12-18T22:17:13.473Z,5.98
2018-12-18T22:19:42.268Z,5.98
2018-12-18T22:22:11.058Z,5.98
2018-12-18T22:24:39.838Z,5.99
2018-12-18T22:27:08.648Z,5.98
2018-12-18T22:29:37.428Z,5.96
2018-12-18T22:32:06.238Z,5.97
2018-12-18T22:34:35.930Z,5.97
2018-12-18T22:37:04.718Z,5.99
2018-12-18T22:39:33.482Z,5.98
2018-12-18T22:42:02.267Z,5.98
2018-12-18T22:44:31.078Z,5.99
2018-12-18T22:46:59.870Z,5.99
2018-12-18T22:49:28.677Z,5.98
2018-12-18T22:51:57.472Z,6.00
2018-12-18T22:54:26.256Z,6.01
2018-12-18T22:56:55.046Z,6.02
2018-12-18T22:59:23.892Z,6.03
2018-12-18T23:01:52.717Z,6.02
2018-12-18T23:04:21.510Z,6.03
2018-12-18T23:06:50.564Z,6.01
2018-12-18T23:09:20.303Z,6.02
2018-12-18T23:11:49.086Z,6.03
2018-12-18T23:14:17.879Z,6.02
2018-12-18T23:16:47.651Z,6.04
2018-12-18T23:19:16.461Z,6.02
2018-12-18T23:21:45.324Z,6.04
2018-12-18T23:24:14.220Z,6.04
2018-12-18T23:26:43.032Z,6.01
2018-12-18T23:29:11.834Z,6.02
2018-12-18T23:31:41.097Z,6.02
2018-12-18T23:34:09.935Z,6.00
2018-12-18T23:36:38.887Z,6.00
2018-12-18T23:39:08.521Z,5.98
2018-12-18T23:41:37.317Z,5.99
2018-12-18T23:44:06.093Z,5.97
2018-12-18T23:46:34.933Z,5.97
2018-12-18T23:49:03.739Z,5.94
2018-12-18T23:51:32.609Z,5.92
2018-12-18T23:54:02.208Z,5.91
2018-12-18T23:56:31.068Z,5.90
2018-12-18T23:59:00.783Z,5.91
